KOCF/OCF METAR and TAF weather

Enter ICAO airport designator
Station Type Date Time Source
KOCF METAR 2020/07/11 15:51 UTC NOAA

KOCF 111551Z 32009KT 10SM FEW027 32/26 A2992 RMK AO2 LTG DSNT S AND SW SLP131 T03220261 $


Station Type Date Time Source
KOCF Decoded METAR 2020/07/11 15:51 UTC NOAA

Ocala, Ocala International Airport-Jim Taylor Field, FL, United States (KOCF) 29-10N 082-13W
Jul 11, 2020 - 11:51 AM EDT / 2020.07.11 1551 UTC
Wind: from the NW (320 degrees) at 10 MPH (9 KT):0
Visibility: 10 mile(s):0
Sky conditions: mostly clear
Weather: Lightning observed
Temperature: 90.0 F (32.2 C)
Heat index: 106.0 F (41.1 C):1
Dew Point: 79.0 F (26.1 C)
Relative Humidity: 70%
Pressure (altimeter): 29.92 in. Hg (1013 hPa)
ob: KOCF 111551Z 32009KT 10SM FEW027 32/26 A2992 RMK AO2 LTG DSNT S AND SW SLP131 T03220261
cycle: 16

Station Type Date Time Source
KOCF TAF UTC NOAA

Error!

Example: see airport list